createdAt,value
2024-03-12T08:17:16.400Z,4.96
2024-03-12T08:18:21.631Z,5.02
2024-03-12T08:27:29.918Z,5.07
2024-03-12T08:34:52.678Z,5.10
2024-03-12T11:58:02.891Z,5.85
2024-03-12T12:00:36.624Z,5.94
2024-03-12T12:03:17.952Z,5.93
2024-03-12T12:21:44.554Z,5.82
2024-03-12T12:24:39.769Z,5.99
2024-03-12T12:27:14.647Z,6.09
2024-03-12T12:28:18.162Z,6.15
2024-03-12T12:29:20.150Z,6.16
2024-03-12T12:30:23.041Z,6.15
2024-03-12T12:31:29.183Z,6.28
2024-03-12T12:32:30.968Z,6.42
2024-03-12T12:33:34.547Z,6.46
2024-03-12T12:34:36.168Z,6.56
2024-03-12T12:35:38.356Z,6.74
2024-03-12T12:36:45.135Z,6.80
2024-03-12T12:37:48.758Z,6.90
2024-03-12T12:38:58.820Z,7.13
2024-03-12T12:40:09.008Z,7.33
2024-03-12T12:41:12.599Z,7.47
2024-03-12T12:42:15.793Z,7.71
2024-03-12T12:43:21.057Z,7.76
2024-03-12T12:44:23.461Z,7.87
2024-03-12T12:45:25.977Z,7.82
2024-03-12T12:46:28.319Z,7.90
2024-03-12T12:47:30.829Z,8.23
2024-03-12T12:48:40.065Z,8.33
2024-03-12T12:49:43.590Z,8.29
2024-03-12T12:50:58.359Z,8.69
2024-03-12T12:52:01.965Z,8.90
2024-03-12T12:53:05.613Z,8.90
2024-03-12T12:54:07.762Z,8.63
2024-03-12T12:55:10.915Z,8.66
2024-03-12T12:56:13.329Z,8.99
2024-03-12T12:57:15.128Z,8.93
2024-03-12T12:58:18.503Z,8.87
2024-03-12T12:59:24.364Z,8.97
2024-03-12T13:00:25.924Z,9.02
2024-03-12T13:01:27.517Z,8.97
2024-03-12T13:02:31.226Z,8.79
2024-03-12T13:03:40.640Z,9.00
2024-03-12T13:04:42.386Z,9.06
2024-03-12T13:05:45.616Z,8.96
2024-03-12T13:06:47.156Z,9.05
2024-03-12T13:07:48.638Z,9.06
2024-03-12T13:08:54.951Z,9.13
2024-03-12T13:09:56.513Z,9.08
2024-03-12T13:11:10.224Z,9.03
2024-03-12T13:12:12.556Z,8.95
2024-03-12T13:13:14.037Z,8.86
2024-03-12T13:14:16.766Z,8.69
2024-03-12T13:15:29.223Z,8.60
2024-03-12T13:16:30.606Z,8.37
2024-03-12T13:17:32.130Z,8.38
2024-03-12T13:18:34.253Z,8.31
2024-03-12T13:19:36.007Z,8.42
2024-03-12T13:20:37.412Z,8.04
2024-03-12T13:21:38.914Z,8.40
2024-03-12T13:22:40.315Z,8.39
2024-03-12T13:23:46.801Z,8.33
2024-03-12T13:24:48.224Z,8.30
2024-03-12T13:25:49.613Z,8.17
2024-03-12T13:26:51.070Z,8.13
2024-03-12T13:27:52.630Z,8.03
2024-03-12T13:28:56.794Z,7.96
2024-03-12T13:29:59.648Z,7.92
2024-03-12T13:31:01.724Z,7.92
2024-03-12T13:32:03.295Z,7.96
2024-03-12T13:33:04.935Z,7.96
2024-03-12T14:26:09.483Z,6.14
2024-03-12T14:28:53.873Z,6.19
2024-03-12T14:31:42.625Z,6.16
